Time;durP1;ratioP1;P1;durP2;ratioP2;P2;SDS_P1;SDS_P2;PMS_P1;PMS_P2;Temp;Humidity;BMP_temperature;BMP_pressure;BME280_temperature;BME280_humidity;BME280_pressure;Samples;Min_cycle;Max_cycle;Signal;HPM_P1;HPM_P2
2022/02/25 00:02:58;;;;;;;10.35;3.05;;;;;;;7.58;79.09;98997.38;5104805;28;20134;-74
2022/02/25 00:05:43;;;;;;;6.82;3.00;;;;;;;7.61;79.15;98999.91;5117065;28;20035;-74
2022/02/25 00:08:28;;;;;;;7.22;3.55;;;;;;;7.59;78.96;98991.25;5116868;28;20039;-74
2022/02/25 00:11:12;;;;;;;6.68;3.03;;;;;;;7.57;78.59;98974.78;5116976;28;20040;-74
2022/02/25 00:13:57;;;;;;;7.63;3.15;;;;;;;7.62;78.46;98989.41;5115875;28;20039;-73
2022/02/25 00:16:42;;;;;;;9.52;3.20;;;;;;;7.58;78.72;98992.16;5116212;28;20429;-74
2022/02/25 00:19:26;;;;;;;7.88;2.72;;;;;;;7.57;78.84;99000.84;5101712;28;20039;-74
2022/02/25 00:22:10;;;;;;;6.07;2.92;;;;;;;7.50;79.47;99001.00;5116049;28;20065;-74
2022/02/25 00:24:55;;;;;;;10.85;3.20;;;;;;;7.45;79.65;99007.25;5115927;28;20040;-74
2022/02/25 00:27:41;;;;;;;6.95;2.67;;;;;;;7.41;79.62;99001.25;5115928;28;20039;-74
2022/02/25 00:30:26;;;;;;;8.32;3.10;;;;;;;7.47;79.88;98995.00;5087349;28;20059;-74
2022/02/25 00:33:13;;;;;;;9.43;3.92;;;;;;;7.37;80.22;98991.78;5116594;28;20050;-74
2022/02/25 00:35:57;;;;;;;10.32;3.00;;;;;;;7.36;80.23;98992.69;5115913;28;20431;-74
2022/02/25 00:38:42;;;;;;;5.35;2.83;;;;;;;7.32;80.94;99000.63;5116846;28;20123;-74
2022/02/25 00:41:26;;;;;;;8.10;3.40;;;;;;;7.28;81.26;98992.03;5116250;28;20043;-74
2022/02/25 00:44:10;;;;;;;8.15;2.80;;;;;;;7.39;80.75;98995.22;5101326;28;20080;-73
2022/02/25 00:46:54;;;;;;;7.18;2.72;;;;;;;7.26;80.70;98971.22;5116439;28;20051;-74
2022/02/25 00:49:39;;;;;;;8.15;2.92;;;;;;;7.31;81.39;98997.16;5116387;28;20078;-74
2022/02/25 00:52:23;;;;;;;12.55;3.10;;;;;;;7.29;81.10;98990.28;5115629;28;20045;-74
2022/02/25 00:55:08;;;;;;;6.82;2.22;;;;;;;7.32;80.63;98980.63;5115707;28;20102;-73
2022/02/25 00:57:55;;;;;;;6.40;2.58;;;;;;;7.44;80.21;99001.19;5116293;28;20044;-73
2022/02/25 01:00:40;;;;;;;6.45;2.33;;;;;;;7.54;79.55;98994.00;5116285;28;20088;-73
2022/02/25 01:03:24;;;;;;;6.60;2.40;;;;;;;7.66;79.06;98992.78;5115391;28;20040;-73
2022/02/25 01:06:10;;;;;;;5.32;3.00;;;;;;;7.71;78.85;99004.81;5115623;28;20040;-74
2022/02/25 01:08:54;;;;;;;5.57;2.67;;;;;;;7.69;78.93;99009.22;5115589;28;20062;-74
2022/02/25 01:11:38;;;;;;;6.85;3.03;;;;;;;7.80;78.90;99008.06;5116179;28;20055;-74
2022/02/25 01:14:23;;;;;;;4.68;2.58;;;;;;;7.61;79.20;98994.69;5115326;28;20036;-74
2022/02/25 01:17:07;;;;;;;9.77;3.33;;;;;;;7.77;79.27;99005.53;5115438;28;20118;-76
2022/02/25 01:19:52;;;;;;;7.75;3.08;;;;;;;7.74;79.38;99006.50;5101131;28;20042;-76
2022/02/25 01:22:36;;;;;;;10.82;2.97;;;;;;;7.79;79.34;99011.56;5115290;28;20040;-76
2022/02/25 01:25:22;;;;;;;8.18;2.80;;;;;;;7.76;80.50;99022.94;5116005;28;20035;-76
2022/02/25 01:28:06;;;;;;;8.02;2.90;;;;;;;7.68;80.95;99017.09;5119236;28;20067;-76
2022/02/25 01:30:51;;;;;;;10.20;3.67;;;;;;;7.82;81.24;99050.59;5119943;28;20040;-76
2022/02/25 01:33:35;;;;;;;7.63;3.25;;;;;;;7.79;80.95;99058.50;5119200;28;20126;-74
2022/02/25 01:36:20;;;;;;;7.75;3.17;;;;;;;7.64;81.86;99047.59;5119807;28;20043;-74
2022/02/25 01:39:04;;;;;;;6.45;2.97;;;;;;;7.82;81.76;99072.31;5120002;28;20036;-73
2022/02/25 01:41:49;;;;;;;9.02;3.33;;;;;;;7.86;81.65;99086.97;5118941;28;20047;-73
2022/02/25 01:44:40;;;;;;;7.43;2.97;;;;;;;7.89;82.09;99086.06;5119702;28;20036;-73
2022/02/25 01:47:24;;;;;;;8.30;2.58;;;;;;;7.91;80.23;99092.09;5118938;28;20039;-73
2022/02/25 01:50:10;;;;;;;2.30;1.30;;;;;;;7.93;73.78;99112.03;5119737;28;20039;-73
2022/02/25 01:53:04;;;;;;;2.13;0.82;;;;;;;7.88;71.82;99113.88;5118845;28;20103;-73
2022/02/25 01:55:49;;;;;;;2.33;0.57;;;;;;;7.99;70.23;99108.38;5119581;28;20039;-73
2022/02/25 01:58:34;;;;;;;1.15;0.50;;;;;;;7.85;69.49;99113.09;5118747;28;20066;-73
2022/02/25 02:01:18;;;;;;;1.35;0.30;;;;;;;7.82;69.43;99106.22;5119373;28;20489;-73
2022/02/25 02:04:04;;;;;;;2.70;0.77;;;;;;;7.79;69.89;99100.22;5119374;28;20318;-73
2022/02/25 02:06:49;;;;;;;3.90;1.20;;;;;;;7.67;69.51;99090.94;5119269;28;20044;-73
2022/02/25 02:09:34;;;;;;;2.78;1.23;;;;;;;7.58;69.26;99081.63;5118501;28;20031;-73
2022/02/25 02:12:19;;;;;;;3.35;0.98;;;;;;;7.54;70.67;99118.19;5118472;28;20048;-73
2022/02/25 02:15:04;;;;;;;2.45;1.83;;;;;;;7.42;71.50;99133.22;5119275;28;20047;-73
2022/02/25 02:17:49;;;;;;;1.63;0.90;;;;;;;7.34;72.03;99113.44;5119141;28;20043;-73
2022/02/25 02:20:33;;;;;;;0.68;0.17;;;;;;;7.35;72.48;99115.19;5118314;28;20048;-73
2022/02/25 02:23:18;;;;;;;0.40;0.32;;;;;;;7.20;72.80;99124.19;5118932;28;20493;-73
2022/02/25 02:26:03;;;;;;;0.20;0.10;;;;;;;7.15;73.68;99128.63;5118332;28;20413;-73
2022/02/25 02:28:48;;;;;;;3.13;0.43;;;;;;;7.14;72.50;99112.16;5118123;28;20052;-73
2022/02/25 02:31:34;;;;;;;1.00;0.20;;;;;;;7.09;72.17;99124.44;5103811;28;20044;-73
2022/02/25 02:34:19;;;;;;;0.70;0.30;;;;;;;7.09;73.37;99134.00;5118846;28;20047;-73
2022/02/25 02:37:05;;;;;;;0.47;0.10;;;;;;;6.88;75.24;99130.94;5117663;28;20051;-73
2022/02/25 02:39:50;;;;;;;1.55;0.10;;;;;;;6.81;74.54;99134.56;5118040;28;20047;-73
2022/02/25 02:42:35;;;;;;;0.38;0.00;;;;;;;6.76;74.40;99144.22;5117834;28;20035;-73
2022/02/25 02:45:19;;;;;;;0.55;0.22;;;;;;;6.78;74.40;99178.88;5117875;28;20070;-73
2022/02/25 02:48:04;;;;;;;0.93;0.30;;;;;;;6.58;74.75;99168.00;5117849;28;20436;-74
2022/02/25 02:50:48;;;;;;;1.40;0.38;;;;;;;6.54;75.78;99172.41;5103611;28;20042;-73
2022/02/25 02:53:34;;;;;;;0.20;0.10;;;;;;;6.41;76.65;99179.56;5118331;28;20040;-73
2022/02/25 02:56:18;;;;;;;0.65;0.13;;;;;;;6.33;77.34;99187.50;5117615;28;20071;-73
2022/02/25 02:59:03;;;;;;;0.95;0.17;;;;;;;6.47;78.23;99223.69;5118310;28;20036;-73
2022/02/25 03:01:48;;;;;;;0.30;0.08;;;;;;;6.35;77.51;99213.50;5117571;28;20489;-73
2022/02/25 03:04:33;;;;;;;0.70;0.15;;;;;;;6.30;78.42;99231.78;5117433;28;20058;-73
2022/02/25 03:07:17;;;;;;;1.48;0.20;;;;;;;6.28;79.81;99237.91;5117432;28;20050;-73
2022/02/25 03:10:03;;;;;;;0.25;0.10;;;;;;;6.20;81.60;99244.94;5118068;28;20059;-73
2022/02/25 03:12:48;;;;;;;0.55;0.13;;;;;;;6.16;83.12;99253.69;5117401;28;20090;-73
2022/02/25 03:15:32;;;;;;;0.65;0.15;;;;;;;6.01;83.94;99255.66;5117931;28;20032;-73
2022/02/25 03:18:17;;;;;;;0.55;0.43;;;;;;;6.03;83.13;99273.81;5102549;28;20457;-73
2022/02/25 03:21:02;;;;;;;0.75;0.15;;;;;;;5.92;82.13;99279.16;5117878;28;20399;-73
2022/02/25 03:23:46;;;;;;;0.30;0.20;;;;;;;5.92;82.27;99284.34;5117243;28;20093;-73
2022/02/25 03:26:31;;;;;;;0.50;0.40;;;;;;;5.80;84.15;99274.97;5117692;28;20047;-73
2022/02/25 03:29:15;;;;;;;0.98;0.10;;;;;;;5.81;85.64;99274.09;5116733;28;20127;-74
2022/02/25 03:31:59;;;;;;;0.55;0.20;;;;;;;5.79;87.34;99275.88;5102613;28;20043;-73
2022/02/25 03:34:44;;;;;;;0.35;0.08;;;;;;;5.66;89.06;99281.28;5117048;28;20036;-73
2022/02/25 03:37:29;;;;;;;0.22;0.10;;;;;;;5.65;88.50;99290.78;5117517;28;20036;-73
2022/02/25 03:40:15;;;;;;;0.45;0.10;;;;;;;5.47;88.85;99307.47;5116847;28;20081;-73
2022/02/25 03:43:00;;;;;;;3.10;0.10;;;;;;;5.34;88.52;99311.94;5116623;28;20039;-73
2022/02/25 03:45:44;;;;;;;0.35;0.10;;;;;;;5.30;89.45;99307.69;5116639;28;20039;-73
2022/02/25 03:48:29;;;;;;;2.30;0.17;;;;;;;5.27;87.82;99322.44;5116314;28;20047;-73
2022/02/25 03:51:13;;;;;;;0.98;0.17;;;;;;;5.21;89.45;99314.72;5116512;28;20040;-73
2022/02/25 03:53:58;;;;;;;1.50;0.10;;;;;;;5.32;88.65;99315.44;5117425;28;20039;-73
2022/02/25 03:56:42;;;;;;;0.50;0.20;;;;;;;5.25;88.23;99332.81;5102217;28;20040;-73
2022/02/25 03:59:27;;;;;;;0.93;0.25;;;;;;;5.21;88.15;99331.16;5117054;28;20414;-73
2022/02/25 04:02:11;;;;;;;0.43;0.20;;;;;;;5.19;88.74;99347.63;5101978;28;20040;-73
2022/02/25 04:04:56;;;;;;;0.10;0.10;;;;;;;5.22;88.69;99345.00;5101946;28;20065;-73
2022/02/25 04:07:42;;;;;;;2.10;0.25;;;;;;;5.19;88.13;99355.41;5116265;28;20097;-73
2022/02/25 04:10:27;;;;;;;0.30;0.10;;;;;;;5.11;88.35;99360.69;5116267;28;20039;-73
2022/02/25 04:13:12;;;;;;;1.20;0.30;;;;;;;5.13;87.91;99367.59;5101949;28;20039;-73
2022/02/25 04:15:56;;;;;;;0.20;0.20;;;;;;;5.13;88.41;99367.59;5116875;28;20421;-73
2022/02/25 04:18:42;;;;;;;1.00;0.38;;;;;;;5.01;88.39;99354.72;5116097;28;20460;-73
2022/02/25 04:21:26;;;;;;;2.33;0.40;;;;;;;4.98;88.83;99356.50;5116681;28;20056;-73
2022/02/25 04:24:12;;;;;;;1.75;0.35;;;;;;;5.03;88.33;99362.47;5116115;28;20059;-73
2022/02/25 04:26:56;;;;;;;2.85;0.52;;;;;;;4.96;88.99;99376.41;5116114;28;20043;-73
2022/02/25 04:29:41;;;;;;;53.42;30.02;;;;;;;4.99;87.55;99391.94;5116427;28;20051;-72
2022/02/25 04:32:25;;;;;;;290.13;116.05;;;;;;;4.96;87.33;99392.81;5116261;28;20048;-73
2022/02/25 04:35:10;;;;;;;417.65;153.60;;;;;;;4.97;86.33;99394.53;5101220;28;20043;-73
2022/02/25 04:37:54;;;;;;;399.30;135.27;;;;;;;4.79;87.83;99392.97;5101359;28;20043;-73
2022/02/25 04:40:39;;;;;;;40.05;18.38;;;;;;;4.83;86.79;99396.41;5096108;28;20044;-74
2022/02/25 04:43:23;;;;;;;2.20;1.50;;;;;;;4.77;84.58;99402.50;5095248;28;20036;-73
2022/02/25 04:46:16;;;;;;;2.15;1.40;;;;;;;4.79;84.57;99413.75;5095518;28;20032;-73
2022/02/25 04:49:00;;;;;;;2.45;0.77;;;;;;;4.88;83.01;99411.06;5095305;28;20052;-72
2022/02/25 04:51:44;;;;;;;0.85;0.82;;;;;;;4.60;84.62;99425.97;5081016;28;20044;-72
2022/02/25 04:54:29;;;;;;;0.70;0.70;;;;;;;4.58;85.02;99427.75;5095236;28;20047;-73
2022/02/25 04:57:13;;;;;;;3.03;0.80;;;;;;;4.59;84.76;99437.22;5095238;28;20040;-73
2022/02/25 04:59:58;;;;;;;1.05;0.77;;;;;;;4.52;85.70;99430.38;5095282;28;20418;-73
2022/02/25 05:02:46;;;;;;;1.17;1.05;;;;;;;4.58;85.95;99445.00;5099470;28;20047;-73
2022/02/25 05:05:31;;;;;;;1.88;0.88;;;;;;;4.60;84.97;99453.66;5099295;28;20093;-73
2022/02/25 05:08:15;;;;;;;1.67;0.73;;;;;;;4.49;84.17;99460.66;5099285;28;20111;-73
2022/02/25 05:11:01;;;;;;;1.50;0.65;;;;;;;4.51;84.47;99477.91;5099234;28;20361;-73
2022/02/25 05:13:46;;;;;;;1.42;1.02;;;;;;;4.48;85.04;99464.94;5099418;28;20442;-73
2022/02/25 05:22:37;;;;;;;1.52;0.93;;;;;;;4.39;86.58;99491.81;5099038;28;20040;-73
2022/02/25 05:25:22;;;;;;;0.85;0.63;;;;;;;4.38;86.83;99490.06;5099705;28;20353;-73
2022/02/25 05:28:06;;;;;;;1.45;0.40;;;;;;;4.27;86.31;99502.25;5098802;28;20354;-73
2022/02/25 05:30:51;;;;;;;3.65;1.40;;;;;;;4.20;86.17;99492.78;5099572;28;20040;-73
2022/02/25 05:33:36;;;;;;;1.35;0.73;;;;;;;4.09;87.41;99487.63;5098752;28;20040;-73
2022/02/25 05:36:20;;;;;;;1.20;0.60;;;;;;;4.06;87.39;99504.91;5099448;28;20418;-73
2022/02/25 05:39:05;;;;;;;2.35;0.98;;;;;;;3.95;87.45;99504.97;5099389;28;20052;-73
2022/02/25 05:41:49;;;;;;;2.38;1.45;;;;;;;3.94;87.93;99513.59;5098610;28;20055;-73
2022/02/25 05:44:34;;;;;;;0.30;0.30;;;;;;;3.86;89.69;99523.13;5097143;28;20093;-73
2022/02/25 05:47:18;;;;;;;1.00;0.52;;;;;;;3.68;91.28;99521.44;5098045;28;20048;-73
2022/02/25 05:50:09;;;;;;;0.57;0.57;;;;;;;3.60;92.00;99515.41;5097555;28;20062;-73
2022/02/25 05:52:55;;;;;;;1.80;0.80;;;;;;;3.69;90.67;99536.97;5097721;28;20044;-73
2022/02/25 05:55:39;;;;;;;0.90;0.60;;;;;;;3.65;91.14;99531.81;5097520;28;20434;-73
2022/02/25 05:58:23;;;;;;;2.63;0.60;;;;;;;3.53;92.75;99545.63;5097936;28;20422;-73
2022/02/25 06:01:08;;;;;;;1.60;1.10;;;;;;;3.56;92.22;99549.94;5083830;28;20040;-72
2022/02/25 06:03:54;;;;;;;2.08;1.30;;;;;;;3.57;93.48;99549.94;5098692;28;20105;-73
2022/02/25 06:06:38;;;;;;;9.25;8.27;;;;;;;3.59;94.11;99563.75;5098959;28;20040;-73
2022/02/25 06:09:23;;;;;;;15.60;14.07;;;;;;;3.58;95.06;99568.94;5084295;28;20047;-73
2022/02/25 06:12:07;;;;;;;22.52;10.30;;;;;;;3.47;95.43;99577.53;5084452;28;20056;-73
2022/02/25 06:14:52;;;;;;;91.20;40.97;;;;;;;3.44;95.64;99572.38;5097867;28;20445;-73
2022/02/25 06:17:46;;;;;;;80.75;34.90;;;;;;;3.55;96.21;99589.66;5097538;28;20705;-78
2022/02/25 06:20:30;;;;;;;134.77;56.95;;;;;;;3.45;97.76;99583.63;5081804;28;20048;-79
2022/02/25 06:23:14;;;;;;;39.70;18.73;;;;;;;3.55;97.58;99593.09;5096318;28;20454;-78
2022/02/25 06:25:58;;;;;;;11.32;3.20;;;;;;;3.53;97.69;99581.88;5081737;28;20456;-79
2022/02/25 06:28:43;;;;;;;1.85;0.98;;;;;;;3.65;98.36;99609.50;5095682;28;20442;-79
2022/02/25 06:31:27;;;;;;;3.75;1.20;;;;;;;3.55;100.00;99593.09;5095864;28;20052;-79
2022/02/25 06:34:12;;;;;;;2.00;1.10;;;;;;;4.16;95.75;99611.19;5095778;28;20388;-78
2022/02/25 06:36:56;;;;;;;2.47;1.45;;;;;;;4.57;95.06;99620.53;5096670;28;20036;-78
2022/02/25 06:39:45;;;;;;;3.00;1.30;;;;;;;4.76;91.77;99626.53;5097824;28;20048;-79
2022/02/25 06:42:29;;;;;;;2.15;1.23;;;;;;;4.88;90.48;99628.22;5083528;28;20097;-78
2022/02/25 06:45:15;;;;;;;2.47;0.95;;;;;;;5.19;89.04;99628.03;5097641;28;20047;-79
2022/02/25 06:47:59;;;;;;;4.43;1.67;;;;;;;5.20;89.02;99635.84;5096045;28;20048;-79
2022/02/25 06:50:44;;;;;;;2.03;1.05;;;;;;;5.11;88.19;99638.47;5097476;28;20441;-79
2022/02/25 06:53:28;;;;;;;4.80;2.92;;;;;;;5.52;87.00;99633.00;5097902;28;20044;-79
2022/02/25 06:56:13;;;;;;;2.35;1.00;;;;;;;5.67;85.19;99651.97;5082967;28;20358;-79
2022/02/25 06:58:57;;;;;;;9.85;6.35;;;;;;;5.92;83.03;99648.28;5097143;28;20063;-79
2022/02/25 07:01:41;;;;;;;4.88;4.38;;;;;;;6.13;82.80;99664.59;5098028;28;20047;-79
2022/02/25 07:04:25;;;;;;;2.15;1.60;;;;;;;6.20;80.76;99658.47;5096993;28;20051;-79
2022/02/25 07:07:10;;;;;;;2.80;1.20;;;;;;;6.33;78.88;99679.13;5082475;28;20361;-79
2022/02/25 07:09:54;;;;;;;1.05;0.95;;;;;;;6.24;79.23;99681.84;5082752;28;20043;-79
2022/02/25 07:12:39;;;;;;;1.35;0.90;;;;;;;6.39;78.91;99679.94;5096332;28;20040;-78
2022/02/25 07:15:23;;;;;;;1.15;0.88;;;;;;;6.47;78.94;99692.00;5095065;28;20063;-79
2022/02/25 07:18:09;;;;;;;2.25;0.98;;;;;;;6.34;78.50;99674.81;5081502;28;20048;-79
2022/02/25 07:20:53;;;;;;;4.00;0.82;;;;;;;6.66;77.88;99691.81;5096385;28;20422;-79
2022/02/25 07:23:39;;;;;;;1.98;0.90;;;;;;;6.85;73.57;99705.47;5095819;28;20040;-79
2022/02/25 07:26:23;;;;;;;2.72;1.40;;;;;;;6.90;74.33;99708.91;5094748;28;20051;-79
2022/02/25 07:29:10;;;;;;;2.22;1.15;;;;;;;6.83;72.58;99699.44;5094777;28;20059;-78
2022/02/25 07:31:54;;;;;;;24.92;12.05;;;;;;;6.99;73.57;99703.59;5095443;28;20044;-79
2022/02/25 07:34:39;;;;;;;4.45;3.08;;;;;;;7.26;71.83;99731.03;5095400;28;20105;-79
2022/02/25 07:37:23;;;;;;;2.65;1.58;;;;;;;7.38;72.20;99720.44;5096289;28;20061;-79
2022/02/25 07:40:10;;;;;;;2.90;1.67;;;;;;;7.28;70.46;99734.50;5082687;28;20051;-78
2022/02/25 07:42:56;;;;;;;4.32;1.38;;;;;;;7.37;69.88;99723.06;5082178;28;20036;-78
2022/02/25 07:45:40;;;;;;;3.38;0.95;;;;;;;7.77;68.92;99728.59;5081956;28;20067;-78
2022/02/25 07:48:25;;;;;;;2.67;1.42;;;;;;;7.84;68.83;99738.03;5096782;28;20416;-78
2022/02/25 07:51:10;;;;;;;1.45;0.82;;;;;;;7.81;68.85;99732.88;5096340;28;20051;-78
2022/02/25 07:53:55;;;;;;;3.08;1.25;;;;;;;8.13;67.77;99745.41;5082172;28;20036;-78
2022/02/25 07:56:40;;;;;;;4.03;1.33;;;;;;;7.62;67.02;99707.94;5096163;28;20044;-78
2022/02/25 07:59:25;;;;;;;2.75;0.77;;;;;;;7.75;67.52;99748.59;5096625;28;20051;-79
2022/02/25 08:02:09;;;;;;;5.05;1.40;;;;;;;7.41;69.01;99746.47;5081654;28;20035;-78
2022/02/25 08:04:53;;;;;;;5.28;1.38;;;;;;;7.52;68.55;99740.25;5095937;28;20040;-78
2022/02/25 08:07:38;;;;;;;3.40;1.73;;;;;;;7.92;68.85;99743.97;5081615;28;20063;-78
2022/02/25 08:10:22;;;;;;;4.70;1.83;;;;;;;7.46;69.23;99717.72;5081746;28;20048;-78
2022/02/25 08:13:08;;;;;;;5.18;1.42;;;;;;;8.31;68.51;99754.66;5081411;28;20354;-78
2022/02/25 08:15:52;;;;;;;4.82;1.65;;;;;;;8.32;67.29;99752.91;5096587;28;20514;-78
2022/02/25 08:18:37;;;;;;;5.70;2.65;;;;;;;8.55;67.67;99749.97;5096461;28;20123;-78
2022/02/25 08:21:22;;;;;;;6.45;2.75;;;;;;;8.55;66.29;99757.81;5081517;28;20367;-78
2022/02/25 08:24:07;;;;;;;5.45;1.00;;;;;;;8.09;65.39;99787.22;5096226;28;20048;-78
2022/02/25 08:26:52;;;;;;;3.42;1.25;;;;;;;7.55;66.17;99741.06;5081451;28;20040;-78
2022/02/25 08:29:36;;;;;;;2.90;1.00;;;;;;;6.95;68.46;99761.78;5081253;28;20048;-78
2022/02/25 08:32:20;;;;;;;2.63;0.70;;;;;;;6.77;69.97;99736.81;5081250;28;20430;-79
2022/02/25 08:35:07;;;;;;;4.97;1.10;;;;;;;6.57;72.00;99754.38;5095648;28;20135;-78
2022/02/25 08:37:51;;;;;;;4.78;2.35;;;;;;;6.80;70.38;99778.44;5096456;28;20044;-78
2022/02/25 08:40:38;;;;;;;1.98;0.80;;;;;;;6.64;70.80;99769.91;5095341;28;20059;-78
2022/02/25 08:43:24;;;;;;;4.47;1.58;;;;;;;6.82;70.76;99796.63;5081025;28;20439;-79
2022/02/25 08:46:09;;;;;;;8.18;3.03;;;;;;;6.60;70.95;99795.97;5095965;28;20047;-79
2022/02/25 08:48:53;;;;;;;5.30;2.13;;;;;;;6.53;71.18;99808.16;5081311;28;20044;-78
2022/02/25 08:51:38;;;;;;;7.18;3.00;;;;;;;6.27;72.26;99811.88;5081196;28;20082;-78
2022/02/25 08:54:22;;;;;;;3.15;1.35;;;;;;;6.39;70.34;99805.69;5095631;28;20040;-78
2022/02/25 08:57:07;;;;;;;5.43;1.92;;;;;;;6.49;70.89;99812.53;5095275;28;20044;-78
2022/02/25 08:59:52;;;;;;;4.22;1.10;;;;;;;6.37;70.15;99791.84;5081079;28;20088;-78
2022/02/25 09:02:37;;;;;;;2.20;1.08;;;;;;;6.60;70.60;99815.06;5095094;28;20438;-78
2022/02/25 09:05:23;;;;;;;4.40;1.60;;;;;;;6.58;69.79;99829.81;5095431;28;20040;-78
2022/02/25 09:08:08;;;;;;;9.85;1.92;;;;;;;6.32;70.09;99836.09;5080996;28;20043;-78
2022/02/25 09:10:54;;;;;;;4.00;1.20;;;;;;;6.33;68.98;99837.81;5080895;28;20349;-78
2022/02/25 09:13:40;;;;;;;7.60;2.30;;;;;;;6.17;68.59;99824.94;5095728;28;20051;-78
2022/02/25 09:16:24;;;;;;;8.07;3.05;;;;;;;6.11;68.07;99837.97;5095654;28;20040;-78
2022/02/25 09:19:09;;;;;;;5.65;1.92;;;;;;;5.79;69.30;99834.66;5094827;28;20040;-79
2022/02/25 09:21:53;;;;;;;5.13;2.80;;;;;;;6.18;69.89;99829.28;5095534;28;20062;-79
2022/02/25 09:24:38;;;;;;;6.72;3.15;;;;;;;6.65;70.48;99839.31;5094830;28;20040;-79
2022/02/25 09:27:24;;;;;;;7.72;2.40;;;;;;;7.08;68.34;99845.84;5095653;28;20432;-78
2022/02/25 09:30:09;;;;;;;5.28;1.77;;;;;;;7.49;65.80;99838.44;5094667;28;20082;-80
2022/02/25 09:32:55;;;;;;;3.42;1.45;;;;;;;7.72;63.19;99839.91;5095095;28;20055;-78
2022/02/25 09:35:39;;;;;;;5.13;1.30;;;;;;;7.78;62.70;99839.81;5096035;28;20047;-78
2022/02/25 09:38:24;;;;;;;6.20;2.15;;;;;;;7.46;61.05;99816.75;5080644;28;20375;-78
2022/02/25 09:41:09;;;;;;;7.10;2.13;;;;;;;7.35;62.12;99850.78;5095694;28;20119;-78
2022/02/25 09:43:54;;;;;;;6.38;1.48;;;;;;;7.19;62.98;99842.25;5080661;28;20461;-78
2022/02/25 09:46:39;;;;;;;10.43;3.20;;;;;;;6.82;62.54;99828.72;5095747;28;20044;-78
2022/02/25 09:49:25;;;;;;;5.68;2.05;;;;;;;6.74;62.54;99851.38;5098796;28;20119;-79
2022/02/25 09:52:12;;;;;;;7.18;2.42;;;;;;;6.79;63.01;99853.06;5084576;28;20047;-78
2022/02/25 09:54:56;;;;;;;6.35;1.70;;;;;;;6.47;64.58;99849.88;5098743;28;20036;-79
2022/02/25 09:57:41;;;;;;;2.42;1.13;;;;;;;6.71;63.76;99861.81;5098879;28;20099;-79
2022/02/25 10:00:25;;;;;;;4.45;1.50;;;;;;;6.75;64.32;99853.97;5098672;28;20036;-79
2022/02/25 10:03:14;;;;;;;7.32;2.35;;;;;;;6.89;64.47;99858.16;5098882;28;20056;-78
2022/02/25 10:06:09;;;;;;;6.70;2.35;;;;;;;6.81;63.58;99842.63;5099467;28;20410;-78
2022/02/25 10:08:55;;;;;;;8.68;3.53;;;;;;;7.01;62.75;99847.66;5098184;28;20036;-78
2022/02/25 10:12:01;;;;;;;7.25;2.53;;;;;;;6.76;62.97;99860.91;5084007;28;20044;-78
2022/02/25 10:14:48;;;;;;;6.65;2.05;;;;;;;6.76;63.35;99860.06;5098726;28;20358;-78
2022/02/25 10:17:33;;;;;;;5.43;1.20;;;;;;;6.88;63.13;99853.84;5098593;28;20036;-78
2022/02/25 10:20:18;;;;;;;4.38;1.20;;;;;;;6.89;63.50;99859.06;5099230;28;20032;-78
2022/02/25 10:23:18;;;;;;;5.70;1.20;;;;;;;6.86;62.38;99873.81;5083558;28;20415;-78
2022/02/25 10:26:18;;;;;;;3.22;1.05;;;;;;;7.00;61.26;99865.03;5097798;28;20445;-78
2022/02/25 10:29:04;;;;;;;4.25;1.13;;;;;;;6.78;61.74;99877.38;5097618;28;20044;-79
2022/02/25 10:31:49;;;;;;;7.78;1.75;;;;;;;6.79;63.30;99865.19;5097670;28;20040;-79
2022/02/25 10:34:33;;;;;;;4.97;1.73;;;;;;;7.01;62.53;99864.13;5097918;28;20044;-78
2022/02/25 10:37:18;;;;;;;7.65;1.83;;;;;;;6.99;62.30;99876.31;5083280;28;20055;-79
2022/02/25 10:40:03;;;;;;;7.55;1.23;;;;;;;6.84;62.75;99876.47;5083750;28;20040;-78
2022/02/25 10:42:48;;;;;;;4.90;1.42;;;;;;;6.59;62.83;99875.78;5098160;28;20036;-79
2022/02/25 10:45:41;;;;;;;7.43;1.95;;;;;;;6.26;61.52;99869.09;5097966;28;20048;-79
2022/02/25 10:48:32;;;;;;;6.63;1.40;;;;;;;6.36;62.25;99878.56;5098132;28;20430;-79
2022/02/25 10:51:22;;;;;;;4.47;0.70;;;;;;;6.79;62.49;99883.44;5083387;28;20108;-78
2022/02/25 10:54:07;;;;;;;3.17;1.35;;;;;;;6.70;63.03;99883.53;5097261;28;20135;-79
2022/02/25 10:56:51;;;;;;;8.38;1.50;;;;;;;6.84;63.69;99879.06;5097170;28;20492;-79
2022/02/25 10:59:43;;;;;;;4.68;1.05;;;;;;;7.15;62.63;99873.56;5082228;28;20455;-79
2022/02/25 11:02:36;;;;;;;3.78;1.00;;;;;;;7.40;62.89;99868.94;5098208;28;20064;-79
2022/02/25 11:05:24;;;;;;;4.88;2.33;;;;;;;7.34;62.23;99862.06;5097712;28;20040;-79
2022/02/25 11:08:08;;;;;;;8.85;3.75;;;;;;;7.44;61.94;99852.38;5097090;28;20113;-78
2022/02/25 11:10:54;;;;;;;5.82;3.00;;;;;;;7.66;60.06;99846.03;5083104;28;20047;-78
2022/02/25 11:13:38;;;;;;;8.65;3.60;;;;;;;8.22;60.55;99860.94;5097832;28;20048;-79
2022/02/25 11:16:24;;;;;;;3.30;1.58;;;;;;;8.77;61.52;99860.97;5097677;28;20032;-79
2022/02/25 11:19:09;;;;;;;8.38;2.58;;;;;;;9.06;55.76;99850.00;5096996;28;20127;-78
2022/02/25 11:21:54;;;;;;;3.33;1.98;;;;;;;9.11;55.50;99858.63;5096771;28;20036;-78
2022/02/25 11:24:40;;;;;;;8.82;3.88;;;;;;;9.24;54.35;99821.81;5097531;28;20036;-77
2022/02/25 11:27:26;;;;;;;4.90;2.75;;;;;;;9.51;54.35;99849.16;5083076;28;20048;-78
2022/02/25 11:30:17;;;;;;;5.15;2.10;;;;;;;9.60;54.54;99852.47;5082318;28;20056;-78
2022/02/25 11:33:24;;;;;;;3.97;1.55;;;;;;;9.50;52.78;99857.91;5097882;28;20047;-78
2022/02/25 11:36:12;;;;;;;5.53;1.73;;;;;;;9.26;53.24;99852.28;5096872;28;20437;-79
2022/02/25 11:38:57;;;;;;;8.70;6.20;;;;;;;9.06;54.32;99859.59;5096563;28;20055;-78
2022/02/25 11:41:49;;;;;;;9.95;3.42;;;;;;;8.80;56.01;99854.84;5082284;28;20115;-78
2022/02/25 11:44:35;;;;;;;7.63;3.67;;;;;;;8.60;55.18;99856.03;5097119;28;20044;-79
2022/02/25 11:47:36;;;;;;;12.45;4.63;;;;;;;8.50;55.40;99857.06;5096293;28;20409;-79
2022/02/25 11:50:38;;;;;;;5.05;1.80;;;;;;;8.76;54.22;99846.19;5097067;28;20441;-78
2022/02/25 11:53:26;;;;;;;2.90;1.58;;;;;;;9.00;54.61;99857.97;5082619;28;20126;-79
2022/02/25 11:56:16;;;;;;;4.53;1.38;;;;;;;9.30;55.01;99853.06;5096261;28;20403;-79
2022/02/25 11:59:01;;;;;;;5.60;1.33;;;;;;;9.71;52.86;99859.22;5081624;28;20447;-80
2022/02/25 12:02:12;;;;;;;3.17;1.00;;;;;;;9.93;52.17;99859.63;5096138;28;20358;-79
2022/02/25 12:04:56;;;;;;;3.63;0.70;;;;;;;9.94;49.61;99859.59;5081762;28;20040;-80
2022/02/25 12:07:47;;;;;;;2.30;0.63;;;;;;;9.94;49.27;99850.88;5096162;28;20418;-78
2022/02/25 12:10:34;;;;;;;2.92;0.68;;;;;;;10.12;48.83;99865.34;5082302;28;20040;-79
2022/02/25 12:13:23;;;;;;;3.05;1.08;;;;;;;10.02;49.53;99843.75;5096352;28;20055;-79
2022/02/25 12:16:34;;;;;;;3.05;0.90;;;;;;;9.86;49.24;99851.06;5096099;28;20040;-80
2022/02/25 12:19:21;;;;;;;4.43;1.52;;;;;;;9.74;50.76;99860.00;5095889;28;20357;-79
2022/02/25 12:22:20;;;;;;;3.42;0.63;;;;;;;9.54;49.20;99870.03;5096529;28;20131;-79
2022/02/25 12:25:11;;;;;;;3.22;0.90;;;;;;;9.25;50.41;99863.59;5096520;28;20040;-79
2022/02/25 12:27:55;;;;;;;5.10;0.82;;;;;;;9.07;51.13;99874.41;5096368;28;20107;-80
2022/02/25 12:30:43;;;;;;;3.60;0.60;;;;;;;9.07;50.88;99871.81;5096548;28;20044;-79
2022/02/25 12:33:36;;;;;;;8.88;2.00;;;;;;;9.56;52.27;99871.72;5096977;28;20058;-79
2022/02/25 12:36:22;;;;;;;3.10;1.02;;;;;;;9.72;50.19;99874.03;5095651;28;20044;-78
2022/02/25 12:39:18;;;;;;;1.85;0.77;;;;;;;9.52;48.58;99874.41;5095733;28;20054;-78
2022/02/25 12:42:09;;;;;;;3.15;1.33;;;;;;;9.48;49.88;99865.78;5081268;28;20040;-80
2022/02/25 12:44:54;;;;;;;1.73;1.05;;;;;;;9.87;51.56;99875.47;5095829;28;20111;-79
2022/02/25 12:47:39;;;;;;;5.00;0.98;;;;;;;9.69;49.48;99867.13;5081719;28;20048;-77
2022/02/25 12:50:23;;;;;;;3.08;0.82;;;;;;;9.92;49.08;99881.47;5096418;28;20043;-77
2022/02/25 12:53:08;;;;;;;3.97;1.30;;;;;;;10.03;48.99;99882.09;5096145;28;20055;-78
2022/02/25 12:55:54;;;;;;;3.92;0.90;;;;;;;10.06;48.23;99887.25;5095302;28;20042;-78
2022/02/25 12:58:39;;;;;;;7.10;1.80;;;;;;;10.00;49.33;99882.16;5096325;28;20044;-77
2022/02/25 13:01:25;;;;;;;5.22;1.08;;;;;;;10.07;48.52;99891.59;5096507;28;20044;-78
2022/02/25 13:04:18;;;;;;;2.90;0.55;;;;;;;10.21;49.06;99880.84;5096241;28;20097;-78
2022/02/25 13:07:03;;;;;;;6.13;1.13;;;;;;;9.98;49.95;99894.44;5095427;28;20060;-77
2022/02/25 13:09:49;;;;;;;3.28;1.10;;;;;;;10.14;48.23;99898.44;5095809;28;20089;-78
2022/02/25 13:12:33;;;;;;;4.03;0.70;;;;;;;9.84;48.93;99879.84;5095376;28;20123;-78
2022/02/25 13:15:28;;;;;;;6.40;1.35;;;;;;;9.90;50.33;99884.09;5095470;28;20044;-78
2022/02/25 13:18:21;;;;;;;6.50;1.70;;;;;;;9.79;52.00;99889.56;5096146;28;20043;-78